Dades meteomassalio
Diari Summary for Gener 24, 2017 Units:  English    Metric   Both
« Previous Day
Next Day »
Diari Semanal Mensual Anual Personalitzat
  Maxima: Minima: Mijana:
Temperatura: 53.2 °F 40.3 °F 45.1 °F
Rosada: 36.9 °F 31.3 °F 33.4 °F
Humitat: 75 % 47 % 64 %
Velocitat del vent: 20.7 mph 0 mph 10.4 mph
Racha vent: 20.7 mph - -
Vent:- - West
Pressio: 30.3 in 30.2 in -
Pluja: 0 in    
Historical Graphs
 
 
Tabular Data for Gener 24, 2017
Time Temperature Dew Point Pressure Wind Wind Speed Wind Gust Humidity Rainfall Rate (Hourly) solar Conditions
00:02 43.5 °F 34.3 °F 30.2 in West 8.1 mph 8.1 mph 70 % 0 in 0.0 W/m2 RA
00:07 43.3 °F 34.5 °F 30.2 in West 11.5 mph 11.5 mph 71 % 0 in 0.0 W/m2 CLR
00:12 43.3 °F 34.3 °F 30.2 in West 11 mph 11 mph 70 % 0 in 0.0 W/m2 CLR
00:17 43.3 °F 34.5 °F 30.2 in WSW 11.5 mph 11.5 mph 71 % 0 in 0.0 W/m2 CLR
00:22 43.3 °F 34.5 °F 30.2 in WSW 6.9 mph 6.9 mph 71 % 0 in 0.0 W/m2 CLR
00:27 43.3 °F 34.5 °F 30.2 in WSW 8.1 mph 8.1 mph 71 % 0 in 0.0 W/m2 CLR
00:32 43.3 °F 34.5 °F 30.2 in WSW 9.2 mph 9.2 mph 71 % 0 in 0.0 W/m2 CLR
00:37 43.2 °F 34.3 °F 30.2 in West 13.8 mph 13.8 mph 71 % 0 in 0.0 W/m2 CLR
00:42 43.2 °F 34.3 °F 30.2 in WSW 9 mph 9 mph 71 % 0 in 0.0 W/m2 CLR
00:47 43.2 °F 34.3 °F 30.2 in WSW 5.8 mph 5.8 mph 71 % 0 in 0.0 W/m2 CLR
00:52 43.2 °F 34.3 °F 30.2 in West 6.9 mph 6.9 mph 71 % 0 in 0.0 W/m2 CLR
00:57 43 °F 34.5 °F 30.2 in WSW 4.6 mph 4.6 mph 72 % 0 in 0.0 W/m2 CLR
01:02 43 °F 34.5 °F 30.2 in West 9.2 mph 9.2 mph 72 % 0 in 0.0 W/m2 CLR
01:07 42.8 °F 34.3 °F 30.2 in WSW 11.5 mph 11.5 mph 72 % 0 in 0.0 W/m2 CLR
01:12 42.8 °F 34.3 °F 30.2 in WSW 12.7 mph 12.7 mph 72 % 0 in 0.0 W/m2 CLR
01:17 42.6 °F 34.3 °F 30.2 in West 10.4 mph 10.4 mph 72 % 0 in 0.0 W/m2 CLR
01:22 42.6 °F 34.5 °F 30.2 in West 5.8 mph 5.8 mph 73 % 0 in 0.0 W/m2 CLR
01:27 42.4 °F 34.5 °F 30.2 in West 9.2 mph 9.2 mph 73 % 0 in 0.0 W/m2 CLR
01:32 42.4 °F 34.3 °F 30.2 in West 5.8 mph 5.8 mph 73 % 0 in 0.0 W/m2 CLR
01:37 42.3 °F 34.2 °F 30.2 in WSW 4.6 mph 4.6 mph 73 % 0 in 0.0 W/m2 CLR
01:42 42.1 °F 34.2 °F 30.2 in West 10.4 mph 10.4 mph 73 % 0 in 0.0 W/m2 CLR
01:47 42.1 °F 34.2 °F 30.2 in West 11.5 mph 11.5 mph 73 % 0 in 0.0 W/m2 CLR
01:52 42.1 °F 34.2 °F 30.2 in West 11 mph 11 mph 73 % 0 in 0.0 W/m2 CLR
01:57 42.1 °F 34 °F 30.2 in West 11.5 mph 11.5 mph 73 % 0 in 0.0 W/m2 CLR
02:02 42.1 °F 34.3 °F 30.2 in West 8.1 mph 8.1 mph 74 % 0 in 0.0 W/m2 CLR
02:07 41.9 °F 34.2 °F 30.2 in West 10.4 mph 10.4 mph 74 % 0 in 0.0 W/m2 CLR
02:12 41.9 °F 34.2 °F 30.2 in West 9.2 mph 9.2 mph 74 % 0 in 0.0 W/m2 CLR
02:17 41.7 °F 34.2 °F 30.2 in WSW 10.4 mph 10.4 mph 74 % 0 in 0.0 W/m2 CLR
02:22 41.7 °F 34.2 °F 30.2 in WSW 8.1 mph 8.1 mph 74 % 0 in 0.0 W/m2 CLR
02:27 41.7 °F 34 °F 30.2 in WSW 6.9 mph 6.9 mph 74 % 0 in 0.0 W/m2 CLR
02:32 41.7 °F 34 °F 30.2 in WSW 9.2 mph 9.2 mph 74 % 0 in 0.0 W/m2 CLR
02:37 41.7 °F 34 °F 30.2 in WSW 9.2 mph 9.2 mph 74 % 0 in 0.0 W/m2 CLR
02:42 41.5 °F 34 °F 30.2 in WSW 6 mph 6 mph 74 % 0 in 0.0 W/m2 CLR
02:47 41.4 °F 33.6 °F 30.2 in WSW 6.9 mph 6.9 mph 74 % 0 in 0.0 W/m2 CLR
02:52 41.4 °F 33.6 °F 30.2 in West 12 mph 12 mph 74 % 0 in 0.0 W/m2 CLR
02:57 41.5 °F 33.8 °F 30.2 in West 12 mph 12 mph 74 % 0 in 0.0 W/m2 CLR
03:02 41.5 °F 33.6 °F 30.2 in West 11.5 mph 11.5 mph 73 % 0 in 0.0 W/m2 CLR
03:07 41.5 °F 33.4 °F 30.2 in WSW 6.9 mph 6.9 mph 73 % 0 in 0.0 W/m2 CLR
03:12 41.4 °F 33.6 °F 30.2 in WSW 8.1 mph 8.1 mph 74 % 0 in 0.0 W/m2 CLR
03:17 41.4 °F 33.6 °F 30.2 in West 10.4 mph 10.4 mph 74 % 0 in 0.0 W/m2 CLR
03:22 41.4 °F 33.6 °F 30.2 in WSW 11.5 mph 11.5 mph 74 % 0 in 0.0 W/m2 CLR
03:27 41.4 °F 33.6 °F 30.2 in WSW 11.5 mph 11.5 mph 74 % 0 in 0.0 W/m2 CLR
03:32 41.2 °F 33.4 °F 30.2 in WSW 8.1 mph 8.1 mph 74 % 0 in 0.0 W/m2 CLR
03:37 41.2 °F 33.3 °F 30.2 in West 11.5 mph 11.5 mph 73 % 0 in 0.0 W/m2 CLR
03:42 41.2 °F 33.4 °F 30.2 in WSW 9.2 mph 9.2 mph 74 % 0 in 0.0 W/m2 CLR
03:47 41.2 °F 33.1 °F 30.2 in WSW 8 mph 8 mph 73 % 0 in 0.0 W/m2 CLR
03:52 41.2 °F 33.4 °F 30.2 in WSW 13.8 mph 13.8 mph 74 % 0 in 0.0 W/m2 CLR
03:57 41.2 °F 33.3 °F 30.2 in WSW 12 mph 12 mph 73 % 0 in 0.0 W/m2 CLR
04:02 41.2 °F 33.3 °F 30.2 in West 11.5 mph 11.5 mph 73 % 0 in 0.0 W/m2 CLR
04:07 41.2 °F 33.3 °F 30.2 in West 11.5 mph 11.5 mph 73 % 0 in 0.0 W/m2 CLR
04:12 41.2 °F 33.3 °F 30.2 in West 9.2 mph 9.2 mph 73 % 0 in 0.0 W/m2 CLR
04:17 41.2 °F 33.3 °F 30.2 in WSW 8.1 mph 8.1 mph 73 % 0 in 0.0 W/m2 CLR
04:22 41.2 °F 33.1 °F 30.2 in WSW 11.5 mph 11.5 mph 73 % 0 in 0.0 W/m2 CLR
04:28 41.2 °F 33.1 °F 30.2 in WSW 10.4 mph 10.4 mph 73 % 0 in 0.0 W/m2 CLR
04:33 41.2 °F 33.4 °F 30.2 in WSW 5.8 mph 5.8 mph 74 % 0 in 0.0 W/m2 CLR
04:38 40.8 °F 33.3 °F 30.2 in WSW 8.1 mph 8.1 mph 74 % 0 in 0.0 W/m2 CLR
04:43 40.6 °F 33.1 °F 30.2 in WSW 8.1 mph 8.1 mph 74 % 0 in 0.0 W/m2 CLR
04:47 40.6 °F 33.3 °F 30.2 in WSW 8.1 mph 8.1 mph 75 % 0 in 0.0 W/m2 CLR
04:53 40.5 °F 33.3 °F 30.2 in WSW 9.2 mph 9.2 mph 75 % 0 in 0.0 W/m2 CLR
04:58 40.5 °F 33.1 °F 30.2 in WSW 3.5 mph 3.5 mph 75 % 0 in 0.0 W/m2 CLR
05:03 40.5 °F 33.3 °F 30.2 in WSW 4.6 mph 4.6 mph 75 % 0 in 0.0 W/m2 CLR
05:08 40.5 °F 33.3 °F 30.2 in WSW 10.4 mph 10.4 mph 75 % 0 in 0.0 W/m2 CLR
05:13 40.5 °F 33.3 °F 30.2 in WSW 5 mph 5 mph 75 % 0 in 0.0 W/m2 CLR
05:18 40.5 °F 33.3 °F 30.2 in WSW 6.9 mph 6.9 mph 75 % 0 in 0.0 W/m2 CLR
05:23 40.5 °F 33.3 °F 30.2 in SW 6 mph 6 mph 75 % 0 in 0.0 W/m2 CLR
05:28 40.3 °F 33.1 °F 30.2 in SW 9.2 mph 9.2 mph 75 % 0 in 0.0 W/m2 CLR
05:33 40.5 °F 33.1 °F 30.2 in WSW 8 mph 8 mph 75 % 0 in 0.0 W/m2 CLR
05:38 40.6 °F 33.1 °F 30.2 in WSW 5.8 mph 5.8 mph 74 % 0 in 0.0 W/m2 CLR
05:43 40.6 °F 33.1 °F 30.2 in SW 7 mph 7 mph 74 % 0 in 0.0 W/m2 CLR
05:48 40.6 °F 33.1 °F 30.2 in SW 11 mph 11 mph 74 % 0 in 0.0 W/m2 CLR
05:53 40.8 °F 33.3 °F 30.2 in West 12.7 mph 12.7 mph 74 % 0 in 0.0 W/m2 CLR
05:58 41 °F 33.3 °F 30.2 in West 11 mph 11 mph 74 % 0 in 0.0 W/m2 CLR
06:03 41.2 °F 33.3 °F 30.2 in West 12.7 mph 12.7 mph 73 % 0 in 0.0 W/m2 CLR
06:08 41.2 °F 33.3 °F 30.2 in West 12.7 mph 12.7 mph 73 % 0 in 0.0 W/m2 CLR
06:13 41.2 °F 33.3 °F 30.2 in West 9.2 mph 9.2 mph 73 % 0 in 0.0 W/m2 CLR
06:18 41.2 °F 33.3 °F 30.2 in West 11.5 mph 11.5 mph 73 % 0 in 0.0 W/m2 CLR
06:23 41.2 °F 33.1 °F 30.2 in West 12.7 mph 12.7 mph 73 % 0 in 0.0 W/m2 CLR
06:28 41.2 °F 33.1 °F 30.2 in West 6 mph 6 mph 73 % 0 in 0.0 W/m2 CLR
06:33 41 °F 33.1 °F 30.2 in WSW 10.4 mph 10.4 mph 73 % 0 in 0.0 W/m2 CLR
06:38 41 °F 33.1 °F 30.2 in WSW 13 mph 13 mph 73 % 0 in 0.0 W/m2 CLR
06:43 41 °F 33.1 °F 30.2 in WSW 12.7 mph 12.7 mph 73 % 0 in 0.0 W/m2 CLR
06:48 40.8 °F 32.9 °F 30.2 in Calm     73 % 0 in 0.0 W/m2 CLR
06:53 40.8 °F 32.7 °F 30.2 in West 3.5 mph 3.5 mph 73 % 0 in 0.0 W/m2 CLR
06:58 40.6 °F 32.5 °F 30.2 in WSW 4.6 mph 4.6 mph 73 % 0 in 0.0 W/m2 CLR
07:03 40.5 °F 32.5 °F 30.2 in WSW 4.6 mph 4.6 mph 73 % 0 in 0.0 W/m2 CLR
07:08 40.5 °F 32.5 °F 30.2 in SW 4.6 mph 4.6 mph 73 % 0 in 0.0 W/m2 CLR
07:13 40.5 °F 32.7 °F 30.2 in Calm     74 % 0 in 0.0 W/m2 CLR
07:18 40.3 °F 32.5 °F 30.2 in Calm     74 % 0 in 0.0 W/m2 CLR
07:23 40.3 °F 32.5 °F 30.2 in WSW 5 mph 5 mph 74 % 0 in 0.0 W/m2 CLR
07:28 40.3 °F 32.7 °F 30.2 in WSW 3.5 mph 3.5 mph 74 % 0 in 0.0 W/m2 CLR
07:33 40.5 °F 32.4 °F 30.2 in WSW 9 mph 9 mph 73 % 0 in 0.0 W/m2 CLR
07:38 40.6 °F 32.5 °F 30.2 in WSW 11.5 mph 11.5 mph 73 % 0 in 0.0 W/m2 CLR
07:43 40.6 °F 32.7 °F 30.2 in WSW 6 mph 6 mph 73 % 0 in 0.0 W/m2 CLR
07:48 40.8 °F 32.5 °F 30.2 in WSW 6.9 mph 6.9 mph 72 % 0 in 0.0 W/m2 CLR
07:53 40.6 °F 32.4 °F 30.2 in West 8 mph 8 mph 72 % 0 in 0.0 W/m2 CLR
07:58 40.6 °F 32.4 °F 30.2 in West 3.5 mph 3.5 mph 72 % 0 in 0.0 W/m2 CLR
08:03 40.6 °F 32.4 °F 30.2 in WSW 12.7 mph 12.7 mph 72 % 0 in 0.0 W/m2 CLR
08:08 40.8 °F 32.5 °F 30.2 in West 12.7 mph 12.7 mph 72 % 0 in 0.0 W/m2 CLR
08:13 41.2 °F 32.4 °F 30.2 in West 11.5 mph 11.5 mph 71 % 0 in 0.0 W/m2 CLR
08:18 40.8 °F 32.2 °F 30.2 in WSW 8.1 mph 8.1 mph 71 % 0 in 0.0 W/m2 OVC
08:23 41 °F 32.4 °F 30.2 in WSW 7 mph 7 mph 71 % 0 in 0.0 W/m2 OVC
08:28 40.8 °F 32.2 °F 30.2 in WSW 9.2 mph 9.2 mph 71 % 0 in 5.0 W/m2 OVC
08:33 40.6 °F 32 °F 30.2 in WSW 11 mph 11 mph 71 % 0 in 9.0 W/m2 OVC
08:38 40.8 °F 32.2 °F 30.2 in West 6.9 mph 6.9 mph 71 % 0 in 12.0 W/m2 BKN
08:43 41 °F 32 °F 30.2 in WSW 10.4 mph 10.4 mph 70 % 0 in 18.0 W/m2 BKN
08:48 41.2 °F 31.8 °F 30.2 in West 8.1 mph 8.1 mph 69 % 0 in 26.0 W/m2 BKN
08:53 41.2 °F 31.8 °F 30.2 in West 12.7 mph 12.7 mph 69 % 0 in 33.0 W/m2 BKN
08:58 41.4 °F 31.8 °F 30.2 in WSW 8.1 mph 8.1 mph 69 % 0 in 37.0 W/m2 BKN
09:03 41.5 °F 31.6 °F 30.2 in WSW 9.2 mph 9.2 mph 68 % 0 in 40.0 W/m2 BKN
09:08 41.5 °F 31.8 °F 30.2 in WSW 15 mph 15 mph 68 % 0 in 47.0 W/m2 BKN
09:13 41.7 °F 31.5 °F 30.2 in WSW 10.4 mph 10.4 mph 67 % 0 in 54.0 W/m2 BKN
09:18 41.7 °F 31.6 °F 30.2 in WSW 10.4 mph 10.4 mph 67 % 0 in 62.0 W/m2 BKN
09:23 42.1 °F 31.8 °F 30.2 in West 16.1 mph 16.1 mph 67 % 0 in 70.0 W/m2 BKN
09:28 42.1 °F 31.8 °F 30.2 in West 10.4 mph 10.4 mph 67 % 0 in 79.0 W/m2 BKN
09:33 42.3 °F 32 °F 30.2 in West 12.7 mph 12.7 mph 67 % 0 in 77.0 W/m2 BKN
09:38 42.3 °F 32.2 °F 30.2 in West 11.5 mph 11.5 mph 67 % 0 in 91.0 W/m2 BKN
09:43 42.6 °F 32 °F 30.2 in West 18.4 mph 18.4 mph 66 % 0 in 130.0 W/m2 BKN
09:48 43 °F 32.4 °F 30.2 in West 15 mph 15 mph 66 % 0 in 134.0 W/m2 BKN
09:53 43 °F 32.4 °F 30.2 in West 14 mph 14 mph 66 % 0 in 114.0 W/m2 BKN
09:58 43 °F 32.4 °F 30.2 in WNW 17.3 mph 17.3 mph 66 % 0 in 206.0 W/m2 BKN
10:03 43.3 °F 32.4 °F 30.2 in West 19.6 mph 19.6 mph 65 % 0 in 183.0 W/m2 BKN
10:08 43.7 °F 32.7 °F 30.2 in WNW 15 mph 15 mph 65 % 0 in 251.0 W/m2 SCT
10:13 43.9 °F 32.9 °F 30.2 in West 18.4 mph 18.4 mph 65 % 0 in 248.0 W/m2 SCT
10:18 44.1 °F 33.4 °F 30.2 in West 11 mph 11 mph 66 % 0 in 176.0 W/m2 SCT
10:23 43.9 °F 32.9 °F 30.2 in West 20.7 mph 20.7 mph 65 % 0 in 176.0 W/m2 BKN
10:28 43.9 °F 32.7 °F 30.2 in WNW 12 mph 12 mph 65 % 0 in 179.0 W/m2 BKN
10:33 43.9 °F 32.7 °F 30.2 in WNW 13 mph 13 mph 65 % 0 in 156.0 W/m2 BKN
10:39 43.9 °F 32.7 °F 30.2 in West 19.6 mph 19.6 mph 65 % 0 in 185.0 W/m2 BKN
10:44 43.9 °F 32.9 °F 30.2 in West 19.6 mph 19.6 mph 65 % 0 in 174.0 W/m2 BKN
10:49 44.1 °F 33.4 °F 30.2 in West 17.3 mph 17.3 mph 66 % 0 in 229.0 W/m2 BKN
10:54 44.2 °F 33.6 °F 30.3 in West 18 mph 18 mph 66 % 0 in 202.0 W/m2 BKN
10:59 44.4 °F 33.6 °F 30.3 in West 16.1 mph 16.1 mph 66 % 0 in 229.0 W/m2 BKN
11:04 44.4 °F 33.4 °F 30.3 in West 16.1 mph 16.1 mph 65 % 0 in 185.0 W/m2 BKN
11:09 44.4 °F 33.4 °F 30.3 in WNW 19.6 mph 19.6 mph 65 % 0 in 156.0 W/m2 BKN
11:14 44.4 °F 33.1 °F 30.3 in WNW 12.7 mph 12.7 mph 64 % 0 in 204.0 W/m2 BKN
11:19 44.8 °F 33.6 °F 30.3 in WNW 18.4 mph 18.4 mph 65 % 0 in 192.0 W/m2 BKN
11:24 44.8 °F 33.6 °F 30.3 in West 14 mph 14 mph 65 % 0 in 114.0 W/m2 BKN
11:29 44.8 °F 34 °F 30.3 in West 16.1 mph 16.1 mph 66 % 0 in 141.0 W/m2 BKN
11:34 44.8 °F 33.6 °F 30.3 in WNW 18 mph 18 mph 65 % 0 in 264.0 W/m2 BKN
11:39 45.3 °F 34.5 °F 30.3 in WNW 12.7 mph 12.7 mph 66 % 0 in 353.0 W/m2 BKN
11:44 45.9 °F 34.3 °F 30.3 in West 18.4 mph 18.4 mph 64 % 0 in 431.0 W/m2 SCT
11:49 46.2 °F 34.3 °F 30.3 in West 16.1 mph 16.1 mph 63 % 0 in 185.0 W/m2 SCT
11:54 46.2 °F 34.7 °F 30.3 in WNW 13.8 mph 13.8 mph 64 % 0 in 214.0 W/m2 BKN
11:59 46.2 °F 34.3 °F 30.3 in WNW 19 mph 19 mph 63 % 0 in 156.0 W/m2 BKN
12:04 46.2 °F 34 °F 30.3 in West 15 mph 15 mph 62 % 0 in 155.0 W/m2 BKN
12:09 46.6 °F 34.2 °F 30.3 in WNW 16.1 mph 16.1 mph 62 % 0 in 471.0 W/m2 BKN
12:14 46.9 °F 34.2 °F 30.3 in West 12.7 mph 13 mph 61 % 0 in 236.0 W/m2 SCT
12:19 47.3 °F 34.2 °F 30.2 in West 12.7 mph 12.7 mph 60 % 0 in 383.0 W/m2 SCT
12:24 47.5 °F 34 °F 30.2 in West 17.3 mph 17.3 mph 59 % 0 in 292.0 W/m2 SCT
12:29 47.7 °F 34.3 °F 30.2 in WNW 14 mph 14 mph 60 % 0 in 299.0 W/m2 SCT
12:34 47.8 °F 34.7 °F 30.2 in WNW 11.5 mph 11.5 mph 60 % 0 in 494.0 W/m2 SCT
12:39 48.6 °F 34.9 °F 30.2 in WNW 15 mph 15 mph 59 % 0 in 424.0 W/m2 FEW
12:45 48.7 °F 35.8 °F 30.2 in WNW 16.1 mph 16.1 mph 61 % 0 in 301.0 W/m2 FEW
12:50 48.7 °F 35.1 °F 30.2 in WNW 16.1 mph 16.1 mph 59 % 0 in 243.0 W/m2 SCT
12:55 48.6 °F 34.5 °F 30.2 in WNW 18 mph 18 mph 58 % 0 in 269.0 W/m2 BKN
13:00 48.7 °F 34.5 °F 30.2 in West 16.1 mph 16.1 mph 58 % 0 in 359.0 W/m2 SCT
13:05 48.7 °F 34.7 °F 30.2 in West 15 mph 15 mph 58 % 0 in 334.0 W/m2 SCT
13:10 48.7 °F 34.2 °F 30.2 in WNW 17.3 mph 17.3 mph 57 % 0 in 272.0 W/m2 SCT
13:15 49.1 °F 34.9 °F 30.2 in WNW 11.5 mph 11.5 mph 58 % 0 in 350.0 W/m2 SCT
13:20 49.3 °F 33.8 °F 30.2 in WNW 20.7 mph 20.7 mph 55 % 0 in 381.0 W/m2 SCT
13:25 49.6 °F 35.1 °F 30.2 in WNW 10.4 mph 10.4 mph 57 % 0 in 304.0 W/m2 SCT
13:30 49.6 °F 36 °F 30.2 in NW 14 mph 14 mph 59 % 0 in 390.0 W/m2 SCT
13:35 49.6 °F 34.5 °F 30.2 in NW 15 mph 15 mph 56 % 0 in 336.0 W/m2 SCT
13:40 50 °F 34.5 °F 30.2 in NW 17.3 mph 17.3 mph 55 % 0 in 415.0 W/m2 FEW
13:45 50.2 °F 35.4 °F 30.2 in WNW 16.1 mph 16.1 mph 57 % 0 in 406.0 W/m2 FEW
13:50 50.2 °F 34.2 °F 30.2 in WNW 18.4 mph 18.4 mph 54 % 0 in 339.0 W/m2 FEW
13:55 50.2 °F 35.1 °F 30.2 in WNW 19.6 mph 19.6 mph 56 % 0 in 404.0 W/m2 FEW
14:00 50.2 °F 35.4 °F 30.2 in WNW 14 mph 14 mph 57 % 0 in 476.0 W/m2 FEW
14:05 50.5 °F 34.9 °F 30.2 in WNW 15 mph 15 mph 55 % 0 in 441.0 W/m2 FEW
14:10 50.5 °F 35.1 °F 30.2 in WNW 15 mph 15.8 mph 55 % 0 in 334.0 W/m2 CLR
14:15 50.5 °F 34.9 °F 30.2 in WNW 17.3 mph 17.3 mph 55 % 0 in 301.0 W/m2 FEW
14:20 50.5 °F 34.5 °F 30.2 in WNW 11.5 mph 11.5 mph 54 % 0 in 323.0 W/m2 FEW
14:25 50.7 °F 35.1 °F 30.2 in WNW 12 mph 12 mph 55 % 0 in 399.0 W/m2 FEW
14:30 51.1 °F 35.1 °F 30.2 in WNW 13.8 mph 13.8 mph 54 % 0 in 464.0 W/m2 CLR
14:35 51.6 °F 35.1 °F 30.2 in WNW 15 mph 15 mph 53 % 0 in 454.0 W/m2 CLR
14:40 51.6 °F 35.6 °F 30.2 in WNW 15 mph 15 mph 54 % 0 in 441.0 W/m2 CLR
14:45 52 °F 36.9 °F 30.2 in WNW 15 mph 15 mph 56 % 0 in 436.0 W/m2 CLR
14:50 52 °F 36 °F 30.2 in WNW 19.6 mph 19.6 mph 54 % 0 in 425.0 W/m2 CLR
14:55 52 °F 34.9 °F 30.2 in WNW 16 mph 16 mph 52 % 0 in 417.0 W/m2 CLR
15:00 52.2 °F 34.5 °F 30.2 in WNW 15 mph 15 mph 51 % 0 in 408.0 W/m2 CLR
15:05 52.2 °F 35.6 °F 30.2 in WNW 19.6 mph 19.6 mph 53 % 0 in 396.0 W/m2 CLR
15:10 52.2 °F 34.5 °F 30.2 in WNW 12.7 mph 12.7 mph 51 % 0 in 388.0 W/m2 CLR
15:15 52.5 °F 34.9 °F 30.2 in WNW 13.8 mph 13.8 mph 51 % 0 in 381.0 W/m2 CLR
15:20 52.5 °F 35.4 °F 30.2 in WNW 15 mph 15 mph 52 % 0 in 371.0 W/m2 CLR
15:25 52.5 °F 35.1 °F 30.2 in WNW 17.3 mph 17.3 mph 51 % 0 in 362.0 W/m2 CLR
15:30 52.9 °F 35.2 °F 30.2 in WNW 13.8 mph 13.8 mph 51 % 0 in 352.0 W/m2 CLR
15:35 52.9 °F 34.7 °F 30.2 in WNW 15 mph 15 mph 50 % 0 in 341.0 W/m2 CLR
15:40 52.9 °F 34.7 °F 30.2 in WNW 17.3 mph 17.3 mph 50 % 0 in 330.0 W/m2 CLR
15:45 52.7 °F 35.1 °F 30.2 in WNW 12.7 mph 12.7 mph 51 % 0 in 322.0 W/m2 CLR
15:50 53.1 °F 34.9 °F 30.2 in WNW 11.5 mph 11.5 mph 50 % 0 in 309.0 W/m2 CLR
15:55 53.1 °F 36 °F 30.2 in WNW 10.4 mph 10.4 mph 52 % 0 in 301.0 W/m2 CLR
16:00 53.1 °F 34.9 °F 30.2 in WNW 13.8 mph 13.8 mph 50 % 0 in 287.0 W/m2 CLR
16:05 53.1 °F 33.8 °F 30.2 in WNW 13.8 mph 13.8 mph 48 % 0 in 274.0 W/m2 CLR
16:10 53.1 °F 35.8 °F 30.2 in WNW 12.7 mph 12.7 mph 52 % 0 in 262.0 W/m2 CLR
16:15 53.1 °F 34.9 °F 30.2 in WNW 13 mph 13 mph 50 % 0 in 250.0 W/m2 CLR
16:20 53.1 °F 34.3 °F 30.2 in WNW 12.7 mph 12.7 mph 49 % 0 in 234.0 W/m2 CLR
16:26 53.1 °F 35.4 °F 30.2 in WNW 10.4 mph 10.4 mph 51 % 0 in 218.0 W/m2 CLR
16:30 53.1 °F 34.3 °F 30.2 in WNW 10.4 mph 10.4 mph 49 % 0 in 204.0 W/m2 CLR
16:36 53.2 °F 35.4 °F 30.2 in WNW 11.5 mph 11.5 mph 51 % 0 in 188.0 W/m2 CLR
16:41 53.1 °F 34.3 °F 30.2 in WNW 11.5 mph 11.5 mph 49 % 0 in 174.0 W/m2 CLR
16:46 53.1 °F 33.4 °F 30.2 in WNW 15 mph 15 mph 47 % 0 in 158.0 W/m2 CLR
16:51 53.1 °F 33.3 °F 30.2 in WNW 13.8 mph 13.8 mph 47 % 0 in 142.0 W/m2 CLR
16:56 52.7 °F 33.1 °F 30.2 in WNW 15 mph 15 mph 47 % 0 in 128.0 W/m2 SCT
17:01 52.7 °F 33.4 °F 30.2 in WNW 12.7 mph 12.7 mph 48 % 0 in 113.0 W/m2 BKN
17:06 52.5 °F 32.9 °F 30.2 in WNW 10.4 mph 10.4 mph 47 % 0 in 98.0 W/m2 OVC
17:11 52.3 °F 33.6 °F 30.2 in WNW 12 mph 12 mph 49 % 0 in 83.0 W/m2 OVC
17:16 52.2 °F 33.4 °F 30.2 in WNW 11.5 mph 11.5 mph 49 % 0 in 67.0 W/m2 OVC
17:21 52 °F 33.8 °F 30.2 in WNW 8.1 mph 8.1 mph 50 % 0 in 58.0 W/m2 OVC
17:26 51.6 °F 33.1 °F 30.2 in WNW 10.4 mph 10.4 mph 49 % 0 in 49.0 W/m2 OVC
17:31 51.4 °F 33.4 °F 30.2 in WNW 11.5 mph 11.5 mph 50 % 0 in 35.0 W/m2 OVC
17:36 51.1 °F 33.6 °F 30.2 in WNW 10.4 mph 10.4 mph 51 % 0 in 26.0 W/m2 OVC
17:41 50.9 °F 33.4 °F 30.2 in WNW 8.1 mph 8.1 mph 51 % 0 in 19.0 W/m2 OVC
17:46 50.7 °F 33.3 °F 30.2 in WNW 8.1 mph 8.1 mph 51 % 0 in 14.0 W/m2 OVC
17:51 50.4 °F 33.4 °F 30.2 in WNW 6.9 mph 6.9 mph 52 % 0 in 12.0 W/m2 OVC
17:56 50 °F 33.4 °F 30.2 in West 6.9 mph 6.9 mph 53 % 0 in 11.0 W/m2 OVC
18:01 49.6 °F 33.3 °F 30.2 in Calm     53 % 0 in 7.0 W/m2 OVC
18:06 49.5 °F 33.1 °F 30.2 in Calm     53 % 0 in 5.0 W/m2 OVC
18:11 49.3 °F 32.9 °F 30.2 in Calm     53 % 0 in 0.0 W/m2 CLR
18:16 48.9 °F 33.4 °F 30.2 in Calm     55 % 0 in 0.0 W/m2 CLR
18:21 48.6 °F 34 °F 30.2 in Calm     57 % 0 in 0.0 W/m2 CLR
18:26 48 °F 33.1 °F 30.2 in Calm     56 % 0 in 0.0 W/m2 CLR
18:31 47.7 °F 33.3 °F 30.2 in Calm     57 % 0 in 0.0 W/m2 CLR
18:36 47.5 °F 33.1 °F 30.2 in Calm     57 % 0 in 0.0 W/m2 CLR
18:41 46.9 °F 33.1 °F 30.2 in Calm     58 % 0 in 0.0 W/m2 CLR
18:46 46.4 °F 32.7 °F 30.2 in Calm     59 % 0 in 0.0 W/m2 CLR
18:51 46.2 °F 32.7 °F 30.2 in WSW 1.2 mph   59 % 0 in 0.0 W/m2 CLR
18:56 46.2 °F 32.7 °F 30.2 in WSW 5.8 mph 5.8 mph 59 % 0 in 0.0 W/m2 CLR
19:01 46.2 °F 32.2 °F 30.2 in WSW 6.9 mph 6.9 mph 58 % 0 in 0.0 W/m2 CLR
19:06 46.8 °F 32.4 °F 30.2 in West 8.1 mph 8.1 mph 57 % 0 in 0.0 W/m2 CLR
19:11 47.5 °F 32.2 °F 30.2 in West 10.4 mph 10.4 mph 55 % 0 in 0.0 W/m2 CLR
19:16 47.7 °F 32.2 °F 30.2 in West 11.5 mph 11.5 mph 55 % 0 in 0.0 W/m2 CLR
19:21 47.7 °F 32.2 °F 30.2 in West 9.2 mph 9.2 mph 55 % 0 in 0.0 W/m2 CLR
19:26 47.1 °F 32.2 °F 30.2 in WSW 5 mph 5 mph 56 % 0 in 0.0 W/m2 CLR
19:31 46.2 °F 32.2 °F 30.2 in WSW 8.1 mph 8.1 mph 58 % 0 in 0.0 W/m2 CLR
19:36 45.9 °F 31.8 °F 30.2 in WSW 9.2 mph 9.2 mph 58 % 0 in 0.0 W/m2 CLR
19:41 45.7 °F 31.8 °F 30.2 in WSW 6 mph 6 mph 58 % 0 in 0.0 W/m2 CLR
19:46 45.9 °F 31.8 °F 30.2 in WSW 17 mph 17 mph 58 % 0 in 0.0 W/m2 CLR
19:51 46.4 °F 31.5 °F 30.2 in WSW 15 mph 15 mph 56 % 0 in 0.0 W/m2 CLR
19:56 46.6 °F 31.6 °F 30.2 in WSW 11.5 mph 11.5 mph 56 % 0 in 0.0 W/m2 CLR
20:01 46.9 °F 31.6 °F 30.2 in West 12.7 mph 12.7 mph 55 % 0 in 0.0 W/m2 CLR
20:06 47.1 °F 31.6 °F 30.2 in West 11.5 mph 11.5 mph 55 % 0 in 0.0 W/m2 CLR
20:11 46.9 °F 31.6 °F 30.2 in West 3.5 mph 3.5 mph 55 % 0 in 0.0 W/m2 CLR
20:16 46.6 °F 31.6 °F 30.2 in WSW 11.5 mph 11.5 mph 56 % 0 in 0.0 W/m2 CLR
20:21 46.8 °F 31.8 °F 30.2 in West 6 mph 6 mph 56 % 0 in 0.0 W/m2 CLR
20:26 46.8 °F 31.5 °F 30.2 in West 10.4 mph 10.4 mph 55 % 0 in 0.0 W/m2 CLR
20:31 46.6 °F 31.6 °F 30.2 in WSW 6.9 mph 6.9 mph 56 % 0 in 0.0 W/m2 CLR
20:36 46 °F 31.6 °F 30.2 in SW 7 mph 7 mph 57 % 0 in 0.0 W/m2 CLR
20:41 45.9 °F 31.5 °F 30.2 in SSW 6.9 mph 6.9 mph 57 % 0 in 0.0 W/m2 CLR
20:46 45.9 °F 31.5 °F 30.2 in SW 11.5 mph 11.5 mph 57 % 0 in 0.0 W/m2 CLR
20:51 45.9 °F 31.5 °F 30.2 in SW 10.4 mph 10.4 mph 57 % 0 in 0.0 W/m2 CLR
20:56 45.7 °F 31.3 °F 30.2 in SW 9.2 mph 9.2 mph 57 % 0 in 0.0 W/m2 CLR
21:01 45.7 °F 31.6 °F 30.2 in SW 6 mph 6 mph 58 % 0 in 0.0 W/m2 CLR
21:06 45.3 °F 31.5 °F 30.2 in SW 10.4 mph 10.4 mph 58 % 0 in 0.0 W/m2 CLR
21:11 45.3 °F 31.8 °F 30.2 in WSW 5.8 mph 5.8 mph 59 % 0 in 0.0 W/m2 CLR
21:16 45.3 °F 32.2 °F 30.2 in WSW 8 mph 8 mph 60 % 0 in 0.0 W/m2 CLR
21:21 45.1 °F 32.2 °F 30.2 in WSW 5.8 mph 5.8 mph 60 % 0 in 0.0 W/m2 CLR
21:26 44.8 °F 32.5 °F 30.2 in WSW 8.1 mph 8.1 mph 62 % 0 in 0.0 W/m2 CLR
21:31 45 °F 32.7 °F 30.2 in WSW 9.2 mph 9.2 mph 62 % 0 in 0.0 W/m2 CLR
21:36 45.1 °F 32.9 °F 30.2 in West 15 mph 15 mph 62 % 0 in 0.0 W/m2 CLR
21:42 45.7 °F 32.9 °F 30.2 in West 10 mph 10 mph 61 % 0 in 0.0 W/m2 CLR
21:47 45.7 °F 32.5 °F 30.2 in West 11.5 mph 11.5 mph 60 % 0 in 0.0 W/m2 CLR
21:52 45.7 °F 32.9 °F 30.2 in West 10.4 mph 10.4 mph 61 % 0 in 0.0 W/m2 CLR
21:57 45.3 °F 32.7 °F 30.2 in West 5 mph 5 mph 61 % 0 in 0.0 W/m2 CLR
22:02 45.1 °F 32.5 °F 30.2 in West 8.1 mph 8.1 mph 61 % 0 in 0.0 W/m2 CLR
22:07 45 °F 32.7 °F 30.2 in Calm     62 % 0 in 0.0 W/m2 CLR
22:12 44.8 °F 32.5 °F 30.2 in WSW 6.9 mph 6.9 mph 62 % 0 in 0.0 W/m2 CLR
22:17 44.8 °F 32.5 °F 30.2 in West 10.4 mph 10.4 mph 62 % 0 in 0.0 W/m2 CLR
22:22 45 °F 32.7 °F 30.2 in WSW 4.6 mph 4.6 mph 62 % 0 in 0.0 W/m2 CLR
22:27 44.6 °F 32.4 °F 30.2 in Calm     62 % 0 in 0.0 W/m2 CLR
22:32 44.6 °F 32.4 °F 30.2 in WSW 3.5 mph 3.5 mph 62 % 0 in 0.0 W/m2 CLR
22:37 44.4 °F 32.4 °F 30.2 in Calm     62 % 0 in 0.0 W/m2 CLR
22:42 44.4 °F 32.5 °F 30.2 in SW 9.2 mph 9.2 mph 63 % 0 in 0.0 W/m2 CLR
22:47 44.4 °F 32.5 °F 30.2 in Calm     63 % 0 in 0.0 W/m2 CLR
22:52 44.4 °F 33.4 °F 30.2 in WSW 11.5 mph 11.5 mph 65 % 0 in 0.0 W/m2 CLR
22:57 44.4 °F 33.1 °F 30.2 in West 12.7 mph 12.7 mph 64 % 0 in 0.0 W/m2 CLR
23:02 44.4 °F 33.4 °F 30.2 in West 5.8 mph 5.8 mph 65 % 0 in 0.0 W/m2 CLR
23:07 44.2 °F 32.9 °F 30.2 in West 6 mph 6 mph 64 % 0 in 0.0 W/m2 CLR
23:12 44.2 °F 32.9 °F 30.2 in West 4 mph 4 mph 64 % 0 in 0.0 W/m2 CLR
23:17 44.2 °F 32.9 °F 30.2 in West 9 mph 9 mph 64 % 0 in 0.0 W/m2 CLR
23:22 44.1 °F 32.7 °F 30.2 in WSW 8.1 mph 8.1 mph 64 % 0 in 0.0 W/m2 CLR
23:27 44.1 °F 32.4 °F 30.2 in WSW 6.9 mph 6.9 mph 63 % 0 in 0.0 W/m2 CLR
23:32 44.1 °F 32.2 °F 30.2 in West 9.2 mph 9.2 mph 63 % 0 in 0.0 W/m2 CLR
23:37 43.9 °F 32.2 °F 30.2 in West 8.1 mph 8.1 mph 63 % 0 in 0.0 W/m2 CLR
23:42 43.9 °F 32 °F 30.2 in West 11.5 mph 11.5 mph 63 % 0 in 0.0 W/m2 CLR
23:47 43.9 °F 32.2 °F 30.2 in West 11.5 mph 11.5 mph 63 % 0 in 0.0 W/m2 CLR
23:52 43.9 °F 32 °F 30.2 in West 11.5 mph 11.5 mph 63 % 0 in 0.0 W/m2 CLR
23:57 43.5 °F 31.8 °F 30.2 in West 12.7 mph 12.7 mph 63 % 0 in 0.0 W/m2 CLR
Lo Temps de Massalio
Compliments of Weather Underground - 1.25 mb